Time;durP1;ratioP1;P1;durP2;ratioP2;P2;SDS_P1;SDS_P2;PMS_P1;PMS_P2;Temp;Humidity;BMP_temperature;BMP_pressure;BME280_temperature;BME280_humidity;BME280_pressure;Samples;Min_cycle;Max_cycle;Signal;HPM_P1;HPM_P2
2023/03/02 00:00:24;;;;;;;;;;;;;;;;;;1875671;28;7038;-65
2023/03/02 00:01:25;;;;;;;;;;;;;;;;;;1875682;28;7077;-65
2023/03/02 00:02:23;;;;;;;;;;;;;;;;;;1874248;28;7130;-65
2023/03/02 00:03:20;;;;;;;;;;;;;;;;;;1874900;28;7131;-64
2023/03/02 00:04:17;;;;;;;;;;;;;;;;;;1867752;29;7105;-65
2023/03/02 00:05:15;;;;;;;;;;;;;;;;;;1867031;29;7120;-65
2023/03/02 00:06:12;;;;;;;;;;;;;;;;;;1873961;28;7006;-64
2023/03/02 00:07:13;;;;;;;;;;;;;;;;;;1875535;28;7092;-64
2023/03/02 00:08:10;;;;;;;;;;;;;;;;;;1875364;28;8052;-64
2023/03/02 00:09:08;;;;;;;;;;;;;;;;;;1874816;28;8124;-64
2023/03/02 00:10:06;;;;;;;;;;;;;;;;;;1875112;28;7093;-64
2023/03/02 00:11:04;;;;;;;;;;;;;;;;;;1875418;28;7085;-64
2023/03/02 00:12:03;;;;;;;;;;;;;;;;;;1875499;28;8056;-64
2023/03/02 00:13:01;;;;;;;;;;;;;;;;;;1875074;28;7009;-64
2023/03/02 00:13:58;;;;;;;;;;;;;;;;;;1875047;28;7006;-65
2023/03/02 00:14:55;;;;;;;;;;;;;;;;;;1874945;28;7046;-65
2023/03/02 00:15:53;;;;;;;;;;;;;;;;;;1874279;28;7067;-64
2023/03/02 00:16:53;;;;;;;;;;;;;;;;;;1873777;28;7034;-65
2023/03/02 00:17:50;;;;;;;;;;;;;;;;;;1875126;28;7034;-65
2023/03/02 00:18:47;;;;;;;;;;;;;;;;;;1875721;28;7010;-64
2023/03/02 00:19:45;;;;;;;;;;;;;;;;;;1874989;28;8113;-65
2023/03/02 00:20:42;;;;;;;;;;;;;;;;;;1875294;28;7121;-65
2023/03/02 00:21:40;;;;;;;;;;;;;;;;;;1874710;28;7106;-66
2023/03/02 00:22:38;;;;;;;;;;;;;;;;;;1872950;28;7333;-64
2023/03/02 00:23:37;;;;;;;;;;;;;;;;;;1873554;28;7120;-65
2023/03/02 00:24:34;;;;;;;;;;;;;;;;;;1875346;28;7089;-65
2023/03/02 00:25:31;;;;;;;;;;;;;;;;;;1875372;28;7026;-65
2023/03/02 00:26:31;;;;;;;;;;;;;;;;;;1869905;28;7330;-64
2023/03/02 00:27:29;;;;;;;;;;;;;;;;;;1870360;28;7113;-64
2023/03/02 00:28:27;;;;;;;;;;;;;;;;;;1867002;28;7010;-64
2023/03/02 00:29:24;;;;;;;;;;;;;;;;;;1872438;28;8037;-65
2023/03/02 00:30:22;;;;;;;;;;;;;;;;;;1873249;28;7139;-64
2023/03/02 00:31:19;;;;;;;;;;;;;;;;;;1868026;28;7136;-65
2023/03/02 00:32:16;;;;;;;;;;;;;;;;;;1870341;28;7570;-64
2023/03/02 00:33:14;;;;;;;;;;;;;;;;;;1875353;28;7018;-65
2023/03/02 00:34:11;;;;;;;;;;;;;;;;;;1874208;28;7361;-64
2023/03/02 00:35:09;;;;;;;;;;;;;;;;;;1871141;28;7121;-65
2023/03/02 00:36:13;;;;;;;;;;;;;;;;;;1870344;28;7046;-64
2023/03/02 00:37:10;;;;;;;;;;;;;;;;;;1868532;29;7124;-64
2023/03/02 00:38:08;;;;;;;;;;;;;;;;;;1867924;29;8061;-65
2023/03/02 00:39:05;;;;;;;;;;;;;;;;;;1872686;28;7033;-64
2023/03/02 00:40:05;;;;;;;;;;;;;;;;;;1873987;28;7293;-65
2023/03/02 00:41:02;;;;;;;;;;;;;;;;;;1872626;28;7014;-64
2023/03/02 00:41:59;;;;;;;;;;;;;;;;;;1873030;28;7043;-65
2023/03/02 00:42:57;;;;;;;;;;;;;;;;;;1872344;28;7105;-65
2023/03/02 00:43:54;;;;;;;;;;;;;;;;;;1869595;28;7018;-64
2023/03/02 00:44:52;;;;;;;;;;;;;;;;;;1866380;29;8010;-65
2023/03/02 00:45:49;;;;;;;;;;;;;;;;;;1870911;28;7034;-64
2023/03/02 00:46:47;;;;;;;;;;;;;;;;;;1875483;28;8401;-64
2023/03/02 00:47:44;;;;;;;;;;;;;;;;;;1873914;28;7138;-65
2023/03/02 00:48:41;;;;;;;;;;;;;;;;;;1873264;28;7030;-64
2023/03/02 00:49:39;;;;;;;;;;;;;;;;;;1867960;29;7038;-65
2023/03/02 00:50:39;;;;;;;;;;;;;;;;;;1870968;28;7142;-65
2023/03/02 00:51:37;;;;;;;;;;;;;;;;;;1874643;28;7026;-65
2023/03/02 00:52:34;;;;;;;;;;;;;;;;;;1870485;28;7010;-65
2023/03/02 00:53:32;;;;;;;;;;;;;;;;;;1871824;28;7026;-65
2023/03/02 00:54:30;;;;;;;;;;;;;;;;;;1870372;28;8133;-64
2023/03/02 00:55:27;;;;;;;;;;;;;;;;;;1871786;28;7042;-65
2023/03/02 00:56:24;;;;;;;;;;;;;;;;;;1871897;28;8198;-64
2023/03/02 00:57:22;;;;;;;;;;;;;;;;;;1867581;29;8160;-65
2023/03/02 00:58:20;;;;;;;;;;;;;;;;;;1870408;28;7121;-64
2023/03/02 00:59:26;;;;;;;;;;;;;;;;;;1867619;29;7010;-65
2023/03/02 01:00:27;;;;;;;;;;;;;;;;;;1868016;29;7026;-65
2023/03/02 01:01:24;;;;;;;;;;;;;;;;;;1868260;29;7112;-64
2023/03/02 01:02:22;;;;;;;;;;;;;;;;;;1867596;29;7093;-64
2023/03/02 01:03:19;;;;;;;;;;;;;;;;;;1865493;29;7014;-65
2023/03/02 01:04:17;;;;;;;;;;;;;;;;;;1867652;29;7010;-65
2023/03/02 01:05:15;;;;;;;;;;;;;;;;;;1873828;28;7006;-66
2023/03/02 01:06:17;;;;;;;;;;;;;;;;;;1868926;28;7043;-64
2023/03/02 01:07:16;;;;;;;;;;;;;;;;;;1872335;28;7132;-64
2023/03/02 01:08:14;;;;;;;;;;;;;;;;;;1867612;29;7092;-65
2023/03/02 01:09:11;;;;;;;;;;;;;;;;;;1864026;29;7106;-65
2023/03/02 01:10:09;;;;;;;;;;;;;;;;;;1871996;28;7043;-65
2023/03/02 01:11:24;;;;;;;;;;;;;;;;;;1875113;28;7030;-65
2023/03/02 01:12:21;;;;;;;;;;;;;;;;;;1871033;28;7022;-64
2023/03/02 01:13:19;;;;;;;;;;;;;;;;;;1870551;28;7018;-65
2023/03/02 01:14:17;;;;;;;;;;;;;;;;;;1874873;28;8041;-64
2023/03/02 01:15:14;;;;;;;;;;;;;;;;;;1867141;29;8052;-64
2023/03/02 01:16:11;;;;;;;;;;;;;;;;;;1867713;29;7149;-64
2023/03/02 01:17:09;;;;;;;;;;;;;;;;;;1872450;28;7050;-64
2023/03/02 01:18:07;;;;;;;;;;;;;;;;;;1872218;28;7113;-64
2023/03/02 01:19:04;;;;;;;;;;;;;;;;;;1872638;28;7030;-65
2023/03/02 01:20:03;;;;;;;;;;;;;;;;;;1866546;29;7010;-65
2023/03/02 01:21:05;;;;;;;;;;;;;;;;;;1870478;28;7006;-64
2023/03/02 01:22:03;;;;;;;;;;;;;;;;;;1874237;28;7093;-64
2023/03/02 01:23:01;;;;;;;;;;;;;;;;;;1871096;28;8034;-64
2023/03/02 01:23:58;;;;;;;;;;;;;;;;;;1874671;28;7340;-64
2023/03/02 01:24:55;;;;;;;;;;;;;;;;;;1870234;28;7002;-65
2023/03/02 01:25:53;;;;;;;;;;;;;;;;;;1867776;29;8060;-64
2023/03/02 01:26:50;;;;;;;;;;;;;;;;;;1869525;28;7006;-65
2023/03/02 01:27:47;;;;;;;;;;;;;;;;;;1872909;28;7113;-65
2023/03/02 01:29:03;;;;;;;;;;;;;;;;;;1869277;28;7026;-64
2023/03/02 01:30:19;;;;;;;;;;;;;;;;;;1875020;28;6994;-64
2023/03/02 01:31:16;;;;;;;;;;;;;;;;;;1868596;28;7034;-65
2023/03/02 01:32:13;;;;;;;;;;;;;;;;;;1867511;29;7113;-64
2023/03/02 01:33:11;;;;;;;;;;;;;;;;;;1867441;29;7050;-65
2023/03/02 01:34:08;;;;;;;;;;;;;;;;;;1870995;28;7006;-64
2023/03/02 01:35:06;;;;;;;;;;;;;;;;;;1874625;28;7006;-64
2023/03/02 01:36:03;;;;;;;;;;;;;;;;;;1870122;28;7014;-65
2023/03/02 01:37:01;;;;;;;;;;;;;;;;;;1870420;28;7006;-64
2023/03/02 01:37:58;;;;;;;;;;;;;;;;;;1867791;28;7097;-65
2023/03/02 01:38:55;;;;;;;;;;;;;;;;;;1867206;29;7045;-65
2023/03/02 01:39:53;;;;;;;;;;;;;;;;;;1867164;29;7014;-65
2023/03/02 01:40:50;;;;;;;;;;;;;;;;;;1866408;29;7010;-64
2023/03/02 01:41:49;;;;;;;;;;;;;;;;;;1874191;28;7029;-64
2023/03/02 01:42:51;;;;;;;;;;;;;;;;;;1873158;28;7010;-64
2023/03/02 01:43:48;;;;;;;;;;;;;;;;;;1873673;28;7018;-65
2023/03/02 01:44:48;;;;;;;;;;;;;;;;;;1872395;28;7101;-65
2023/03/02 01:45:50;;;;;;;;;;;;;;;;;;1871701;28;7308;-64
2023/03/02 01:46:48;;;;;;;;;;;;;;;;;;1871819;28;7366;-64
2023/03/02 01:47:45;;;;;;;;;;;;;;;;;;1869093;29;7010;-64
2023/03/02 01:48:46;;;;;;;;;;;;;;;;;;1867731;29;8172;-65
2023/03/02 01:49:47;;;;;;;;;;;;;;;;;;1867493;29;7010;-64
2023/03/02 01:52:18;;;;;;;;;;;;;;;;;;1869620;28;7199;-64
2023/03/02 01:53:16;;;;;;;;;;;;;;;;;;1870223;28;8046;-64
2023/03/02 01:54:21;;;;;;;;;;;;;;;;;;1874223;28;7935;-64
2023/03/02 01:55:23;;;;;;;;;;;;;;;;;;1874529;28;7993;-65
2023/03/02 01:56:27;;;;;;;;;;;;;;;;;;1874398;28;7010;-64
2023/03/02 01:57:28;;;;;;;;;;;;;;;;;;1874377;28;7030;-65
2023/03/02 01:58:27;;;;;;;;;;;;;;;;;;1869623;28;7010;-65
2023/03/02 01:59:28;;;;;;;;;;;;;;;;;;1869621;29;7014;-64
2023/03/02 02:00:32;;;;;;;;;;;;;;;;;;1870792;28;7309;-65
2023/03/02 02:01:32;;;;;;;;;;;;;;;;;;1870013;29;7014;-64
2023/03/02 02:02:29;;;;;;;;;;;;;;;;;;1873335;28;7040;-65
2023/03/02 02:03:29;;;;;;;;;;;;;;;;;;1867944;29;9056;-64
2023/03/02 02:04:29;;;;;;;;;;;;;;;;;;1868355;29;7010;-64
2023/03/02 02:05:27;;;;;;;;;;;;;;;;;;1866611;29;7043;-64
2023/03/02 02:06:44;;;;;;;;;;;;;;;;;;1869012;29;7097;-64
2023/03/02 02:07:42;;;;;;;;;;;;;;;;;;1866414;29;7440;-64
2023/03/02 02:08:40;;;;;;;;;;;;;;;;;;1867441;29;7014;-65
2023/03/02 02:09:44;;;;;;;;;;;;;;;;;;1872024;29;7006;-64
2023/03/02 02:10:42;;;;;;;;;;;;;;;;;;1870779;29;7267;-65
2023/03/02 02:11:41;;;;;;;;;;;;;;;;;;1870949;29;7026;-65
2023/03/02 02:12:38;;;;;;;;;;;;;;;;;;1870898;29;7014;-64
2023/03/02 02:13:35;;;;;;;;;;;;;;;;;;1870565;29;7047;-64
2023/03/02 02:14:33;;;;;;;;;;;;;;;;;;1872794;29;7149;-64
2023/03/02 02:15:30;;;;;;;;;;;;;;;;;;1867854;29;7010;-65
2023/03/02 02:16:30;;;;;;;;;;;;;;;;;;1867343;29;7034;-64
2023/03/02 02:17:28;;;;;;;;;;;;;;;;;;1869053;29;7021;-65
2023/03/02 02:18:26;;;;;;;;;;;;;;;;;;1873215;29;7442;-64
2023/03/02 02:19:42;;;;;;;;;;;;;;;;;;1872335;29;7014;-64
2023/03/02 02:20:43;;;;;;;;;;;;;;;;;;1872009;29;7046;-64
2023/03/02 02:21:41;;;;;;;;;;;;;;;;;;1866881;29;7014;-65
2023/03/02 02:22:38;;;;;;;;;;;;;;;;;;1873461;29;7969;-64
2023/03/02 02:23:44;;;;;;;;;;;;;;;;;;1874780;29;7093;-64
2023/03/02 02:24:45;;;;;;;;;;;;;;;;;;1872299;29;7097;-65
2023/03/02 02:25:46;;;;;;;;;;;;;;;;;;1873727;29;7128;-65
2023/03/02 02:26:49;;;;;;;;;;;;;;;;;;1873625;29;8016;-64
2023/03/02 02:27:46;;;;;;;;;;;;;;;;;;1874592;29;7010;-65
2023/03/02 02:28:50;;;;;;;;;;;;;;;;;;1874736;29;7018;-65
2023/03/02 02:29:50;;;;;;;;;;;;;;;;;;1874407;29;8004;-65
2023/03/02 02:30:54;;;;;;;;;;;;;;;;;;1874843;29;7010;-65
2023/03/02 02:32:00;;;;;;;;;;;;;;;;;;1873758;29;7135;-65
2023/03/02 02:32:59;;;;;;;;;;;;;;;;;;1874157;29;7087;-64
2023/03/02 02:34:10;;;;;;;;;;;;;;;;;;1875089;29;7131;-65
2023/03/02 02:35:23;;;;;;;;;;;;;;;;;;1874524;29;8343;-64
2023/03/02 02:36:34;;;;;;;;;;;;;;;;;;1874542;29;7136;-65
2023/03/02 02:37:44;;;;;;;;;;;;;;;;;;1874431;29;8036;-64
2023/03/02 02:38:46;;;;;;;;;;;;;;;;;;1874629;29;7317;-64
2023/03/02 02:39:46;;;;;;;;;;;;;;;;;;1874327;29;7030;-65
2023/03/02 02:40:58;;;;;;;;;;;;;;;;;;1874753;29;8124;-65
2023/03/02 02:41:59;;;;;;;;;;;;;;;;;;1866836;29;7125;-64
2023/03/02 02:42:56;;;;;;;;;;;;;;;;;;1867279;29;7149;-65
2023/03/02 02:43:55;;;;;;;;;;;;;;;;;;1874517;29;7114;-65
2023/03/02 02:44:55;;;;;;;;;;;;;;;;;;1873537;29;7039;-65
2023/03/02 02:45:56;;;;;;;;;;;;;;;;;;1873630;29;7014;-64
2023/03/02 02:46:53;;;;;;;;;;;;;;;;;;1874705;29;8036;-64
2023/03/02 02:47:53;;;;;;;;;;;;;;;;;;1874156;29;7338;-65
2023/03/02 02:48:50;;;;;;;;;;;;;;;;;;1874530;29;7113;-65
2023/03/02 02:49:51;;;;;;;;;;;;;;;;;;1874143;29;7026;-65
2023/03/02 02:50:52;;;;;;;;;;;;;;;;;;1874288;29;7010;-64
2023/03/02 02:51:49;;;;;;;;;;;;;;;;;;1875569;29;7018;-65
2023/03/02 02:52:52;;;;;;;;;;;;;;;;;;1873587;29;7014;-64
2023/03/02 02:53:57;;;;;;;;;;;;;;;;;;1874290;29;7010;-65
2023/03/02 02:54:57;;;;;;;;;;;;;;;;;;1874864;29;7018;-65
2023/03/02 02:55:56;;;;;;;;;;;;;;;;;;1874690;29;7033;-64
2023/03/02 02:56:55;;;;;;;;;;;;;;;;;;1874479;29;7014;-65
2023/03/02 02:57:56;;;;;;;;;;;;;;;;;;1874580;29;7006;-65
2023/03/02 02:58:56;;;;;;;;;;;;;;;;;;1874524;29;8116;-64
2023/03/02 02:59:57;;;;;;;;;;;;;;;;;;1875008;29;7051;-65
2023/03/02 03:00:54;;;;;;;;;;;;;;;;;;1874970;29;7042;-65
2023/03/02 03:01:52;;;;;;;;;;;;;;;;;;1873767;29;7025;-64
2023/03/02 03:03:04;;;;;;;;;;;;;;;;;;1873778;29;7082;-65
2023/03/02 03:04:03;;;;;;;;;;;;;;;;;;1874522;29;8018;-65
2023/03/02 03:05:03;;;;;;;;;;;;;;;;;;1873964;29;7010;-65
2023/03/02 03:06:03;;;;;;;;;;;;;;;;;;1874660;29;7026;-65
2023/03/02 03:07:02;;;;;;;;;;;;;;;;;;1874796;29;7046;-64
2023/03/02 03:08:08;;;;;;;;;;;;;;;;;;1866964;29;7014;-64
2023/03/02 03:09:06;;;;;;;;;;;;;;;;;;1866719;29;7233;-64
2023/03/02 03:10:11;;;;;;;;;;;;;;;;;;1874519;29;7002;-66
2023/03/02 03:11:10;;;;;;;;;;;;;;;;;;1874401;29;7002;-64
2023/03/02 03:12:15;;;;;;;;;;;;;;;;;;1874441;28;7093;-65
2023/03/02 03:13:12;;;;;;;;;;;;;;;;;;1874385;28;7128;-65
2023/03/02 03:14:15;;;;;;;;;;;;;;;;;;1876008;28;8112;-64
2023/03/02 03:15:13;;;;;;;;;;;;;;;;;;1875580;28;8021;-65
2023/03/02 03:16:13;;;;;;;;;;;;;;;;;;1875901;28;8115;-64
2023/03/02 03:17:11;;;;;;;;;;;;;;;;;;1876098;28;7074;-65
2023/03/02 03:18:09;;;;;;;;;;;;;;;;;;1874660;28;7002;-65
2023/03/02 03:19:06;;;;;;;;;;;;;;;;;;1876057;28;8019;-65
2023/03/02 03:20:10;;;;;;;;;;;;;;;;;;1875698;28;7089;-64
2023/03/02 03:21:07;;;;;;;;;;;;;;;;;;1875449;28;7018;-64
2023/03/02 03:22:04;;;;;;;;;;;;;;;;;;1867668;29;7135;-65
2023/03/02 03:23:02;;;;;;;;;;;;;;;;;;1867784;29;7059;-65
2023/03/02 03:23:59;;;;;;;;;;;;;;;;;;1874956;28;7113;-64
2023/03/02 03:24:57;;;;;;;;;;;;;;;;;;1875815;28;7379;-64
2023/03/02 03:25:55;;;;;;;;;;;;;;;;;;1875949;28;7029;-64
2023/03/02 03:26:53;;;;;;;;;;;;;;;;;;1875616;28;7093;-65
2023/03/02 03:27:50;;;;;;;;;;;;;;;;;;1875496;28;7093;-64
2023/03/02 03:28:48;;;;;;;;;;;;;;;;;;1875539;28;7013;-64
2023/03/02 03:29:49;;;;;;;;;;;;;;;;;;1876198;28;7089;-65
2023/03/02 03:30:46;;;;;;;;;;;;;;;;;;1875526;28;7010;-64
2023/03/02 03:31:44;;;;;;;;;;;;;;;;;;1875204;28;7006;-65
2023/03/02 03:32:41;;;;;;;;;;;;;;;;;;1875674;28;7010;-64
2023/03/02 03:33:38;;;;;;;;;;;;;;;;;;1875057;28;7038;-65
2023/03/02 03:34:39;;;;;;;;;;;;;;;;;;1875624;28;8038;-65
2023/03/02 03:35:37;;;;;;;;;;;;;;;;;;1875658;28;7002;-64
2023/03/02 03:36:35;;;;;;;;;;;;;;;;;;1875698;28;7046;-65
2023/03/02 03:37:34;;;;;;;;;;;;;;;;;;1875967;28;7010;-65
2023/03/02 03:38:31;;;;;;;;;;;;;;;;;;1873994;28;7301;-64
2023/03/02 03:39:29;;;;;;;;;;;;;;;;;;1875161;28;7006;-64
2023/03/02 03:40:27;;;;;;;;;;;;;;;;;;1875805;28;7040;-65
2023/03/02 03:41:25;;;;;;;;;;;;;;;;;;1874521;28;7010;-64
2023/03/02 03:42:23;;;;;;;;;;;;;;;;;;1876076;28;7025;-65
2023/03/02 03:43:20;;;;;;;;;;;;;;;;;;1875225;28;7136;-64
2023/03/02 03:44:17;;;;;;;;;;;;;;;;;;1875485;28;8043;-65
2023/03/02 03:45:15;;;;;;;;;;;;;;;;;;1874016;28;7595;-64
2023/03/02 03:46:12;;;;;;;;;;;;;;;;;;1875290;28;7113;-64
2023/03/02 03:47:09;;;;;;;;;;;;;;;;;;1874965;28;7089;-64
2023/03/02 03:48:07;;;;;;;;;;;;;;;;;;1868134;29;7042;-65
2023/03/02 03:49:04;;;;;;;;;;;;;;;;;;1867694;29;8104;-64
2023/03/02 03:50:02;;;;;;;;;;;;;;;;;;1874055;28;7085;-64
2023/03/02 03:51:00;;;;;;;;;;;;;;;;;;1875756;28;7140;-65
2023/03/02 03:51:57;;;;;;;;;;;;;;;;;;1875085;28;7117;-65
2023/03/02 03:52:54;;;;;;;;;;;;;;;;;;1875904;28;7013;-64
2023/03/02 03:54:01;;;;;;;;;;;;;;;;;;1875533;28;9073;-64
2023/03/02 03:54:59;;;;;;;;;;;;;;;;;;1874938;28;8132;-65
2023/03/02 03:55:56;;;;;;;;;;;;;;;;;;1875320;28;7097;-65
2023/03/02 03:56:54;;;;;;;;;;;;;;;;;;1875276;28;7006;-64
2023/03/02 03:57:51;;;;;;;;;;;;;;;;;;1875278;28;8127;-65
2023/03/02 03:58:52;;;;;;;;;;;;;;;;;;1875720;28;7029;-65
2023/03/02 03:59:50;;;;;;;;;;;;;;;;;;1875810;28;7042;-65
2023/03/02 04:00:47;;;;;;;;;;;;;;;;;;1872824;28;7097;-65
2023/03/02 04:01:47;;;;;;;;;;;;;;;;;;1874217;28;7148;-65
2023/03/02 04:02:44;;;;;;;;;;;;;;;;;;1874211;28;7345;-64
2023/03/02 04:03:41;;;;;;;;;;;;;;;;;;1875342;28;7121;-65
2023/03/02 04:04:39;;;;;;;;;;;;;;;;;;1875023;28;7010;-65
2023/03/02 04:05:36;;;;;;;;;;;;;;;;;;1875053;28;7006;-65
2023/03/02 04:06:34;;;;;;;;;;;;;;;;;;1875134;28;7070;-64
2023/03/02 04:07:32;;;;;;;;;;;;;;;;;;1873756;28;7033;-64
2023/03/02 04:08:29;;;;;;;;;;;;;;;;;;1875074;28;7096;-65
2023/03/02 04:09:30;;;;;;;;;;;;;;;;;;1875564;28;7018;-64
2023/03/02 04:10:28;;;;;;;;;;;;;;;;;;1875363;28;7092;-64
2023/03/02 04:11:25;;;;;;;;;;;;;;;;;;1875445;28;7010;-65
2023/03/02 04:12:23;;;;;;;;;;;;;;;;;;1875499;28;7006;-65
2023/03/02 04:13:20;;;;;;;;;;;;;;;;;;1873582;28;7089;-65
2023/03/02 04:14:18;;;;;;;;;;;;;;;;;;1874941;28;7085;-64
2023/03/02 04:15:15;;;;;;;;;;;;;;;;;;1874954;28;7364;-64
2023/03/02 04:16:13;;;;;;;;;;;;;;;;;;1874848;28;7385;-64
2023/03/02 04:17:10;;;;;;;;;;;;;;;;;;1874850;28;7093;-64
2023/03/02 04:18:08;;;;;;;;;;;;;;;;;;1875408;28;7010;-65
2023/03/02 04:19:08;;;;;;;;;;;;;;;;;;1874837;28;8072;-64
2023/03/02 04:20:07;;;;;;;;;;;;;;;;;;1875663;28;7109;-65
2023/03/02 04:21:04;;;;;;;;;;;;;;;;;;1874963;28;7126;-64
2023/03/02 04:22:02;;;;;;;;;;;;;;;;;;1874953;28;7282;-65
2023/03/02 04:23:00;;;;;;;;;;;;;;;;;;1875622;28;7010;-65
2023/03/02 04:23:57;;;;;;;;;;;;;;;;;;1875361;28;7117;-65
2023/03/02 04:24:55;;;;;;;;;;;;;;;;;;1875344;28;7149;-65
2023/03/02 04:25:52;;;;;;;;;;;;;;;;;;1874892;28;8040;-64
2023/03/02 04:26:50;;;;;;;;;;;;;;;;;;1875392;28;7126;-64
2023/03/02 04:27:49;;;;;;;;;;;;;;;;;;1875469;28;7006;-65
2023/03/02 04:28:49;;;;;;;;;;;;;;;;;;1874842;28;7149;-65
2023/03/02 04:29:47;;;;;;;;;;;;;;;;;;1875233;28;7137;-65
2023/03/02 04:30:44;;;;;;;;;;;;;;;;;;1874964;28;7089;-65
2023/03/02 04:31:42;;;;;;;;;;;;;;;;;;1874907;28;7042;-65
2023/03/02 04:32:39;;;;;;;;;;;;;;;;;;1874802;28;7006;-64
2023/03/02 04:33:38;;;;;;;;;;;;;;;;;;1874397;28;7006;-64
2023/03/02 04:34:35;;;;;;;;;;;;;;;;;;1874802;28;7042;-65
2023/03/02 04:35:33;;;;;;;;;;;;;;;;;;1875067;28;8024;-64
2023/03/02 04:36:32;;;;;;;;;;;;;;;;;;1875235;28;7030;-65
2023/03/02 04:37:29;;;;;;;;;;;;;;;;;;1874684;28;8016;-64
2023/03/02 04:38:28;;;;;;;;;;;;;;;;;;1874878;28;7156;-64
2023/03/02 04:39:25;;;;;;;;;;;;;;;;;;1875016;28;7371;-64
2023/03/02 04:40:23;;;;;;;;;;;;;;;;;;1873215;28;7123;-64
2023/03/02 04:41:20;;;;;;;;;;;;;;;;;;1875469;28;7128;-64
2023/03/02 04:42:19;;;;;;;;;;;;;;;;;;1875318;28;7006;-65
2023/03/02 04:43:17;;;;;;;;;;;;;;;;;;1875128;28;7010;-64
2023/03/02 04:44:15;;;;;;;;;;;;;;;;;;1874835;28;7002;-65
2023/03/02 04:45:13;;;;;;;;;;;;;;;;;;1873738;28;7116;-64
2023/03/02 04:46:19;;;;;;;;;;;;;;;;;;1874808;28;7306;-65
2023/03/02 04:47:16;;;;;;;;;;;;;;;;;;1874875;28;8016;-64
2023/03/02 04:48:13;;;;;;;;;;;;;;;;;;1875013;28;7022;-64
2023/03/02 04:49:11;;;;;;;;;;;;;;;;;;1875435;28;7010;-65
2023/03/02 04:50:10;;;;;;;;;;;;;;;;;;1875572;28;7038;-65
2023/03/02 04:51:17;;;;;;;;;;;;;;;;;;1874850;28;7006;-65
2023/03/02 04:52:15;;;;;;;;;;;;;;;;;;1875057;28;7025;-64
2023/03/02 04:53:12;;;;;;;;;;;;;;;;;;1875164;28;7006;-64
2023/03/02 04:54:14;;;;;;;;;;;;;;;;;;1874872;28;8062;-64
2023/03/02 04:55:18;;;;;;;;;;;;;;;;;;1874779;28;7089;-64
2023/03/02 04:56:15;;;;;;;;;;;;;;;;;;1874673;28;7105;-64
2023/03/02 04:57:13;;;;;;;;;;;;;;;;;;1875151;28;7022;-64
2023/03/02 04:58:11;;;;;;;;;;;;;;;;;;1875009;28;7022;-63
2023/03/02 04:59:08;;;;;;;;;;;;;;;;;;1874975;28;7006;-65
2023/03/02 05:00:08;;;;;;;;;;;;;;;;;;1874951;28;7046;-65
2023/03/02 05:01:06;;;;;;;;;;;;;;;;;;1875039;28;7006;-65
2023/03/02 05:02:04;;;;;;;;;;;;;;;;;;1875066;28;7188;-64
2023/03/02 05:03:02;;;;;;;;;;;;;;;;;;1874899;28;7093;-64
2023/03/02 05:04:00;;;;;;;;;;;;;;;;;;1875091;28;7002;-64
2023/03/02 05:04:59;;;;;;;;;;;;;;;;;;1875013;28;7006;-64
2023/03/02 05:05:56;;;;;;;;;;;;;;;;;;1875057;28;8077;-64
2023/03/02 05:06:54;;;;;;;;;;;;;;;;;;1875278;28;7009;-64
2023/03/02 05:07:51;;;;;;;;;;;;;;;;;;1875391;28;7010;-65
2023/03/02 05:08:49;;;;;;;;;;;;;;;;;;1875330;28;8157;-64
2023/03/02 05:09:47;;;;;;;;;;;;;;;;;;1873726;28;7009;-65
2023/03/02 05:10:44;;;;;;;;;;;;;;;;;;1874794;28;7006;-65
2023/03/02 05:11:41;;;;;;;;;;;;;;;;;;1875212;28;7099;-64
2023/03/02 05:13:01;;;;;;;;;;;;;;;;;;1875610;28;7089;-65
2023/03/02 05:14:00;;;;;;;;;;;;;;;;;;1874298;28;8051;-64
2023/03/02 05:14:57;;;;;;;;;;;;;;;;;;1875049;28;7063;-64
2023/03/02 05:15:56;;;;;;;;;;;;;;;;;;1875463;28;7022;-65
2023/03/02 05:16:53;;;;;;;;;;;;;;;;;;1875564;28;7132;-64
2023/03/02 05:17:51;;;;;;;;;;;;;;;;;;1874920;28;7116;-65
2023/03/02 05:18:48;;;;;;;;;;;;;;;;;;1875208;28;7006;-64
2023/03/02 05:19:45;;;;;;;;;;;;;;;;;;1875139;28;7026;-64
2023/03/02 05:20:43;;;;;;;;;;;;;;;;;;1874657;28;7145;-65
2023/03/02 05:21:41;;;;;;;;;;;;;;;;;;1875206;28;8020;-64
2023/03/02 05:22:38;;;;;;;;;;;;;;;;;;1874959;28;8027;-65
2023/03/02 05:23:36;;;;;;;;;;;;;;;;;;1873340;28;7580;-64
2023/03/02 05:24:34;;;;;;;;;;;;;;;;;;1869570;28;7117;-65
2023/03/02 05:25:34;;;;;;;;;;;;;;;;;;1870649;28;7109;-65
2023/03/02 05:26:31;;;;;;;;;;;;;;;;;;1868324;29;8205;-69
2023/03/02 05:27:29;;;;;;;;;;;;;;;;;;1874715;28;7093;-64
2023/03/02 05:28:27;;;;;;;;;;;;;;;;;;1875408;28;8041;-64
2023/03/02 05:29:24;;;;;;;;;;;;;;;;;;1871098;28;7013;-65
2023/03/02 05:30:22;;;;;;;;;;;;;;;;;;1873506;28;7021;-65
2023/03/02 05:31:22;;;;;;;;;;;;;;;;;;1870828;28;7405;-64
2023/03/02 05:32:19;;;;;;;;;;;;;;;;;;1871291;28;7010;-65
2023/03/02 05:33:17;;;;;;;;;;;;;;;;;;1868037;29;7026;-65
2023/03/02 05:34:15;;;;;;;;;;;;;;;;;;1871299;28;7014;-65
2023/03/02 05:35:13;;;;;;;;;;;;;;;;;;1859685;29;7133;-65
2023/03/02 05:36:10;;;;;;;;;;;;;;;;;;1860366;29;7109;-64
2023/03/02 05:37:07;;;;;;;;;;;;;;;;;;1867322;28;7089;-64
2023/03/02 05:38:05;;;;;;;;;;;;;;;;;;1874912;28;7088;-64
2023/03/02 05:39:03;;;;;;;;;;;;;;;;;;1872470;28;8040;-65
2023/03/02 05:40:00;;;;;;;;;;;;;;;;;;1868636;28;7006;-65
2023/03/02 05:40:57;;;;;;;;;;;;;;;;;;1868829;28;7144;-65
2023/03/02 05:41:55;;;;;;;;;;;;;;;;;;1875226;28;7114;-64
2023/03/02 05:42:52;;;;;;;;;;;;;;;;;;1868200;28;7347;-64
2023/03/02 05:43:50;;;;;;;;;;;;;;;;;;1867598;29;7093;-64
2023/03/02 05:44:47;;;;;;;;;;;;;;;;;;1867160;29;7038;-65
2023/03/02 05:45:45;;;;;;;;;;;;;;;;;;1869011;28;7010;-65
2023/03/02 05:46:42;;;;;;;;;;;;;;;;;;1869113;28;7039;-64
2023/03/02 05:47:40;;;;;;;;;;;;;;;;;;1867669;29;7093;-65
2023/03/02 05:48:37;;;;;;;;;;;;;;;;;;1868171;29;7109;-65
2023/03/02 05:49:34;;;;;;;;;;;;;;;;;;1867943;29;7317;-65
2023/03/02 05:50:32;;;;;;;;;;;;;;;;;;1867695;29;8117;-64
2023/03/02 05:51:30;;;;;;;;;;;;;;;;;;1868860;28;8210;-65
2023/03/02 05:52:27;;;;;;;;;;;;;;;;;;1867918;29;8045;-65
2023/03/02 05:53:24;;;;;;;;;;;;;;;;;;1871969;29;7002;-64
2023/03/02 05:54:22;;;;;;;;;;;;;;;;;;1872263;28;8047;-64
2023/03/02 05:55:19;;;;;;;;;;;;;;;;;;1871840;28;7010;-64
2023/03/02 05:56:19;;;;;;;;;;;;;;;;;;1870886;28;7010;-64
2023/03/02 05:57:16;;;;;;;;;;;;;;;;;;1867702;29;8004;-65
2023/03/02 05:58:16;;;;;;;;;;;;;;;;;;1871458;28;8357;-64
2023/03/02 05:59:13;;;;;;;;;;;;;;;;;;1873611;28;7006;-64
2023/03/02 06:00:12;;;;;;;;;;;;;;;;;;1874334;28;7151;-65
2023/03/02 06:01:10;;;;;;;;;;;;;;;;;;1868479;29;7030;-65
2023/03/02 06:02:12;;;;;;;;;;;;;;;;;;1869250;29;7163;-64
2023/03/02 06:03:09;;;;;;;;;;;;;;;;;;1867784;29;7088;-64
2023/03/02 06:04:07;;;;;;;;;;;;;;;;;;1868120;29;7101;-64
2023/03/02 06:05:04;;;;;;;;;;;;;;;;;;1869065;28;7042;-65
2023/03/02 06:06:02;;;;;;;;;;;;;;;;;;1866226;29;8033;-64
2023/03/02 06:06:59;;;;;;;;;;;;;;;;;;1869155;29;8044;-64
2023/03/02 06:07:56;;;;;;;;;;;;;;;;;;1867752;29;7042;-65
2023/03/02 06:08:54;;;;;;;;;;;;;;;;;;1868670;29;7009;-64
2023/03/02 06:09:51;;;;;;;;;;;;;;;;;;1873885;29;7297;-65
2023/03/02 06:10:49;;;;;;;;;;;;;;;;;;1867800;29;7113;-65
2023/03/02 06:11:47;;;;;;;;;;;;;;;;;;1868747;29;7046;-65
2023/03/02 06:12:45;;;;;;;;;;;;;;;;;;1870774;29;7268;-64
2023/03/02 06:13:42;;;;;;;;;;;;;;;;;;1866587;29;7317;-64
2023/03/02 06:14:39;;;;;;;;;;;;;;;;;;1867628;29;7038;-64
2023/03/02 06:15:39;;;;;;;;;;;;;;;;;;1867766;29;7126;-65
2023/03/02 06:16:36;;;;;;;;;;;;;;;;;;1870608;29;8142;-64
2023/03/02 06:17:34;;;;;;;;;;;;;;;;;;1872560;29;7062;-64
2023/03/02 06:18:31;;;;;;;;;;;;;;;;;;1867489;29;8248;-65
2023/03/02 06:19:29;;;;;;;;;;;;;;;;;;1867841;29;7302;-64
2023/03/02 06:20:26;;;;;;;;;;;;;;;;;;1872986;29;7121;-64
2023/03/02 06:21:23;;;;;;;;;;;;;;;;;;1870248;29;7089;-64
2023/03/02 06:22:21;;;;;;;;;;;;;;;;;;1871727;29;7021;-64
2023/03/02 06:23:18;;;;;;;;;;;;;;;;;;1875692;29;7010;-65
2023/03/02 06:24:19;;;;;;;;;;;;;;;;;;1874948;29;7114;-64
2023/03/02 06:25:19;;;;;;;;;;;;;;;;;;1874718;29;8127;-65
2023/03/02 06:26:16;;;;;;;;;;;;;;;;;;1874843;29;7014;-65
2023/03/02 06:27:14;;;;;;;;;;;;;;;;;;1874554;29;7097;-65
2023/03/02 06:28:11;;;;;;;;;;;;;;;;;;1874851;29;7058;-65
2023/03/02 06:29:08;;;;;;;;;;;;;;;;;;1874642;29;8188;-64
2023/03/02 06:30:07;;;;;;;;;;;;;;;;;;1875167;29;7039;-65
2023/03/02 06:31:04;;;;;;;;;;;;;;;;;;1875026;29;7097;-64
2023/03/02 06:32:02;;;;;;;;;;;;;;;;;;1874458;29;7360;-64
2023/03/02 06:33:00;;;;;;;;;;;;;;;;;;1874523;29;7009;-65
2023/03/02 06:33:57;;;;;;;;;;;;;;;;;;1874658;29;7042;-65
2023/03/02 06:34:55;;;;;;;;;;;;;;;;;;1873829;29;7184;-65
2023/03/02 06:35:52;;;;;;;;;;;;;;;;;;1874289;29;7421;-65
2023/03/02 06:36:50;;;;;;;;;;;;;;;;;;1874195;29;8016;-64
2023/03/02 06:37:47;;;;;;;;;;;;;;;;;;1874731;29;8034;-65
2023/03/02 06:38:44;;;;;;;;;;;;;;;;;;1874585;29;7109;-64
2023/03/02 06:39:41;;;;;;;;;;;;;;;;;;1874946;29;7058;-65
2023/03/02 06:40:39;;;;;;;;;;;;;;;;;;1874316;29;7145;-65
2023/03/02 06:41:36;;;;;;;;;;;;;;;;;;1875406;29;8012;-65
2023/03/02 06:42:34;;;;;;;;;;;;;;;;;;1874961;29;7002;-65
2023/03/02 06:43:31;;;;;;;;;;;;;;;;;;1874886;29;7173;-65
2023/03/02 06:44:28;;;;;;;;;;;;;;;;;;1874775;29;7186;-65
2023/03/02 06:45:26;;;;;;;;;;;;;;;;;;1874698;29;7026;-65
2023/03/02 06:46:24;;;;;;;;;;;;;;;;;;1875143;28;7093;-64
2023/03/02 06:47:21;;;;;;;;;;;;;;;;;;1875313;28;7089;-64
2023/03/02 06:48:19;;;;;;;;;;;;;;;;;;1876178;28;7010;-65
2023/03/02 06:49:16;;;;;;;;;;;;;;;;;;1876124;28;7145;-64
2023/03/02 06:50:15;;;;;;;;;;;;;;;;;;1876567;28;7093;-65